Time;durP1;ratioP1;P1;durP2;ratioP2;P2;SDS_P1;SDS_P2;PMS_P1;PMS_P2;Temp;Humidity;BMP_temperature;BMP_pressure;BME280_temperature;BME280_humidity;BME280_pressure;Samples;Min_cycle;Max_cycle;Signal;HPM_P1;HPM_P2
2020/12/25 00:00:19;;;;;;;11.27;2.30;;;7.40;77.00;;;;;;4991546;28;20045;-77
2020/12/25 00:02:44;;;;;;;14.65;3.80;;;7.40;77.00;;;;;;5009482;28;20032;-76
2020/12/25 00:05:10;;;;;;;11.13;2.38;;;7.30;77.20;;;;;;4992816;28;20038;-77
2020/12/25 00:07:35;;;;;;;10.60;2.60;;;7.30;77.40;;;;;;5010245;28;20125;-75
2020/12/25 00:10:01;;;;;;;7.03;2.10;;;7.20;77.50;;;;;;5006278;28;20109;-76
2020/12/25 00:12:26;;;;;;;9.17;2.83;;;7.20;77.60;;;;;;5005690;28;20439;-76
2020/12/25 00:14:52;;;;;;;8.47;2.40;;;7.20;77.70;;;;;;5005626;28;20041;-76
2020/12/25 00:17:18;;;;;;;10.77;2.30;;;7.10;77.80;;;;;;5005540;28;20042;-75
2020/12/25 00:19:43;;;;;;;11.15;2.63;;;7.10;78.00;;;;;;4984451;28;20403;-75
2020/12/25 00:22:09;;;;;;;7.28;3.25;;;7.00;77.90;;;;;;4999565;28;20037;-74
2020/12/25 00:24:34;;;;;;;6.53;1.98;;;7.00;78.00;;;;;;5000853;28;20027;-74
2020/12/25 00:27:00;;;;;;;7.83;2.30;;;7.00;78.10;;;;;;4998014;28;20566;-74
2020/12/25 00:29:26;;;;;;;10.23;2.40;;;6.90;78.10;;;;;;5001227;28;20475;-74
2020/12/25 00:31:51;;;;;;;10.82;3.20;;;6.90;78.30;;;;;;5003206;28;20072;-74
2020/12/25 00:34:17;;;;;;;9.23;1.80;;;6.80;78.30;;;;;;5004690;28;20069;-75
2020/12/25 00:36:45;;;;;;;11.23;2.53;;;6.80;78.30;;;;;;4965564;28;20125;-75
2020/12/25 00:39:15;;;;;;;6.87;2.77;;;6.80;78.30;;;;;;4988038;28;20100;-75
2020/12/25 00:41:48;;;;;;;11.50;2.45;;;6.70;78.50;;;;;;5007970;28;20127;-74
2020/12/25 00:44:14;;;;;;;13.80;2.33;;;6.70;78.70;;;;;;5008647;28;20026;-74
2020/12/25 00:46:41;;;;;;;7.77;2.10;;;6.70;78.70;;;;;;5008738;28;20099;-74
2020/12/25 00:49:07;;;;;;;11.07;2.37;;;6.60;78.80;;;;;;5007472;28;20057;-74
2020/12/25 00:51:33;;;;;;;10.03;1.70;;;6.60;78.90;;;;;;5009424;28;20479;-75
2020/12/25 00:53:58;;;;;;;12.67;2.33;;;6.60;78.90;;;;;;5010740;28;20037;-74
2020/12/25 00:56:24;;;;;;;9.50;2.90;;;6.60;78.90;;;;;;5011756;28;20143;-74
2020/12/25 00:58:50;;;;;;;12.87;2.77;;;6.50;78.80;;;;;;5013821;28;20041;-75
2020/12/25 01:01:15;;;;;;;7.80;2.30;;;6.50;78.90;;;;;;4995618;28;20037;-75
2020/12/25 01:03:43;;;;;;;9.27;2.60;;;6.50;78.80;;;;;;5003865;28;20046;-75
2020/12/25 01:06:19;;;;;;;8.80;2.73;;;6.50;78.80;;;;;;4995647;28;20494;-75
2020/12/25 01:08:47;;;;;;;9.07;2.10;;;6.50;78.80;;;;;;5014926;28;20040;-74
2020/12/25 01:11:13;;;;;;;9.47;2.13;;;6.40;78.90;;;;;;4993605;28;20046;-75
2020/12/25 01:13:40;;;;;;;9.27;2.30;;;6.40;78.90;;;;;;5013829;28;20038;-75
2020/12/25 01:16:07;;;;;;;15.23;3.50;;;6.40;78.90;;;;;;5009002;28;20699;-75
2020/12/25 01:18:33;;;;;;;12.57;2.63;;;6.40;79.00;;;;;;5005684;28;20088;-75
2020/12/25 01:20:59;;;;;;;7.70;2.23;;;6.40;78.90;;;;;;4993956;28;20073;-75
2020/12/25 01:23:25;;;;;;;10.50;2.40;;;6.40;78.80;;;;;;5014802;28;20029;-75
2020/12/25 01:25:51;;;;;;;7.97;2.10;;;6.40;78.70;;;;;;5014164;28;20523;-75
2020/12/25 01:28:18;;;;;;;8.47;2.37;;;6.40;78.70;;;;;;5008688;28;20483;-75
2020/12/25 01:30:44;;;;;;;8.23;2.80;;;6.40;78.80;;;;;;4995620;28;20049;-75
2020/12/25 01:33:09;;;;;;;17.07;2.87;;;6.40;78.90;;;;;;4999382;28;20026;-74
2020/12/25 01:35:36;;;;;;;9.83;2.43;;;6.50;79.00;;;;;;5006119;28;20034;-75
2020/12/25 01:38:01;;;;;;;7.23;1.67;;;6.50;78.80;;;;;;5004119;28;20061;-75
2020/12/25 01:40:27;;;;;;;7.93;2.10;;;6.50;78.80;;;;;;5013382;28;20421;-75
2020/12/25 01:42:52;;;;;;;17.00;3.37;;;6.50;78.70;;;;;;4978136;28;20310;-75
2020/12/25 01:45:18;;;;;;;9.90;2.47;;;6.50;78.60;;;;;;5011612;28;20064;-75
2020/12/25 01:47:44;;;;;;;12.50;2.57;;;6.50;78.70;;;;;;5012361;28;20065;-75
2020/12/25 01:50:12;;;;;;;11.23;2.57;;;6.40;78.70;;;;;;4994057;28;20484;-75
2020/12/25 01:52:38;;;;;;;8.70;2.20;;;6.40;78.80;;;;;;5012408;28;20032;-75
2020/12/25 01:55:07;;;;;;;17.03;3.73;;;6.50;78.90;;;;;;4987625;28;20045;-74
2020/12/25 01:57:33;;;;;;;9.17;3.40;;;6.50;78.80;;;;;;4998094;28;20033;-75
2020/12/25 01:59:59;;;;;;;11.67;2.90;;;6.50;78.70;;;;;;5007232;28;20368;-75
2020/12/25 02:02:25;;;;;;;11.90;2.00;;;6.50;78.80;;;;;;4997574;28;20029;-75
2020/12/25 02:04:52;;;;;;;7.47;1.77;;;6.40;78.60;;;;;;4995319;28;20038;-75
2020/12/25 02:07:18;;;;;;;9.63;2.00;;;6.40;78.70;;;;;;5012096;28;20050;-75
2020/12/25 02:09:44;;;;;;;8.03;2.47;;;6.40;78.70;;;;;;5012502;28;20069;-74
2020/12/25 02:12:10;;;;;;;11.50;3.33;;;6.50;78.70;;;;;;4995986;28;20126;-75
2020/12/25 02:14:36;;;;;;;11.63;2.47;;;6.50;78.70;;;;;;4996349;28;20113;-76
2020/12/25 02:17:01;;;;;;;24.10;3.70;;;6.40;78.60;;;;;;5012576;28;20073;-75
2020/12/25 02:19:27;;;;;;;10.23;2.63;;;6.40;78.90;;;;;;4995961;28;20046;-75
2020/12/25 02:21:53;;;;;;;11.33;3.00;;;6.40;78.90;;;;;;5010781;28;20077;-75
2020/12/25 02:24:18;;;;;;;14.80;3.83;;;6.40;78.90;;;;;;5013417;28;20133;-74
2020/12/25 02:26:44;;;;;;;10.63;2.80;;;6.40;78.90;;;;;;5011023;28;20460;-75
2020/12/25 02:29:10;;;;;;;6.23;1.60;;;6.40;78.90;;;;;;5008151;28;20201;-75
2020/12/25 02:31:35;;;;;;;11.60;3.13;;;6.40;78.70;;;;;;5011507;28;20108;-75
2020/12/25 02:34:01;;;;;;;7.80;1.80;;;6.40;78.90;;;;;;4981309;28;20049;-75
2020/12/25 02:36:27;;;;;;;7.90;2.10;;;6.40;78.90;;;;;;4995086;28;20046;-75
2020/12/25 02:38:52;;;;;;;15.07;3.93;;;6.30;78.90;;;;;;5012783;28;20026;-75
2020/12/25 02:41:18;;;;;;;7.37;2.77;;;6.40;78.90;;;;;;4994046;28;20049;-75
2020/12/25 02:43:44;;;;;;;11.43;2.80;;;6.40;78.80;;;;;;5011994;28;20034;-74
2020/12/25 02:46:10;;;;;;;6.43;2.07;;;6.50;78.60;;;;;;4977914;28;20033;-75
2020/12/25 02:48:36;;;;;;;9.70;1.90;;;6.50;78.40;;;;;;5011838;28;20483;-75
2020/12/25 02:51:01;;;;;;;13.40;2.33;;;6.50;78.40;;;;;;5011347;28;20493;-75
2020/12/25 02:53:27;;;;;;;8.57;2.63;;;6.50;78.50;;;;;;5012541;28;20080;-75
2020/12/25 02:55:53;;;;;;;6.10;1.57;;;6.50;78.50;;;;;;4994093;28;20108;-74
2020/12/25 02:58:18;;;;;;;9.93;2.63;;;6.50;78.40;;;;;;5011380;28;20109;-74
2020/12/25 03:00:44;;;;;;;6.20;1.60;;;6.50;78.20;;;;;;5011230;28;20419;-75
2020/12/25 03:03:09;;;;;;;5.73;1.80;;;6.50;78.10;;;;;;4996971;28;20373;-75
2020/12/25 03:05:35;;;;;;;6.50;1.50;;;6.50;78.20;;;;;;4981937;28;20088;-74
2020/12/25 03:08:01;;;;;;;7.90;1.63;;;6.50;78.20;;;;;;5003044;28;20120;-75
2020/12/25 03:10:26;;;;;;;8.87;2.33;;;6.50;78.20;;;;;;5007734;28;20042;-75
2020/12/25 03:12:52;;;;;;;9.30;2.43;;;6.40;78.30;;;;;;4998680;28;20112;-76
2020/12/25 03:15:17;;;;;;;9.00;2.00;;;6.50;78.40;;;;;;4993945;28;20030;-75
2020/12/25 03:17:43;;;;;;;10.03;3.10;;;6.50;78.20;;;;;;4995151;28;20041;-75
2020/12/25 03:20:09;;;;;;;4.67;1.50;;;6.50;78.20;;;;;;4995340;28;20046;-75
2020/12/25 03:22:34;;;;;;;10.17;2.13;;;6.50;78.00;;;;;;4993670;28;20036;-74
2020/12/25 03:25:00;;;;;;;9.40;2.13;;;6.40;78.20;;;;;;5005381;28;20099;-74
2020/12/25 03:27:25;;;;;;;4.67;1.70;;;6.40;78.10;;;;;;4996751;28;20026;-75
2020/12/25 03:29:51;;;;;;;6.70;2.07;;;6.40;78.20;;;;;;4994206;28;20049;-75
2020/12/25 03:32:16;;;;;;;6.77;1.70;;;6.40;78.20;;;;;;5010867;28;20544;-75
2020/12/25 03:34:42;;;;;;;6.90;2.03;;;6.30;78.30;;;;;;5002143;28;20038;-75
2020/12/25 03:37:08;;;;;;;8.73;2.10;;;6.40;78.30;;;;;;4995241;28;20334;-75
2020/12/25 03:39:33;;;;;;;8.83;1.33;;;6.40;78.10;;;;;;5009718;28;20077;-75
2020/12/25 03:41:59;;;;;;;6.27;1.60;;;6.50;78.10;;;;;;4993189;28;20176;-75
2020/12/25 03:44:24;;;;;;;8.63;1.80;;;6.50;78.10;;;;;;5010573;28;20041;-75
2020/12/25 03:46:50;;;;;;;6.60;1.60;;;6.50;77.80;;;;;;4973651;28;20034;-74
2020/12/25 03:49:16;;;;;;;4.07;1.63;;;6.50;77.80;;;;;;4990857;28;20116;-75
2020/12/25 03:51:41;;;;;;;14.63;2.30;;;6.50;77.70;;;;;;5009137;28;20159;-75
2020/12/25 03:54:07;;;;;;;7.03;1.93;;;6.60;77.80;;;;;;5001717;28;20375;-75
2020/12/25 03:56:32;;;;;;;8.03;1.53;;;6.60;77.60;;;;;;4994800;28;20038;-75
2020/12/25 03:58:58;;;;;;;7.67;1.30;;;6.60;77.30;;;;;;4998023;28;20127;-74
2020/12/25 04:01:24;;;;;;;4.87;1.23;;;6.60;77.30;;;;;;4996643;28;20040;-75
2020/12/25 04:03:50;;;;;;;7.03;1.50;;;6.50;77.30;;;;;;4975819;28;20100;-75
2020/12/25 04:06:16;;;;;;;11.50;2.53;;;6.50;77.40;;;;;;5003734;28;20038;-75
2020/12/25 04:08:43;;;;;;;4.33;1.10;;;6.50;77.50;;;;;;5010390;28;20038;-75
2020/12/25 04:11:09;;;;;;;5.93;1.47;;;6.50;77.50;;;;;;4992757;28;20041;-74
2020/12/25 04:13:34;;;;;;;5.33;1.07;;;6.50;77.60;;;;;;4995146;28;20457;-75
2020/12/25 04:16:01;;;;;;;4.67;1.33;;;6.40;77.50;;;;;;5010003;28;20072;-75
2020/12/25 04:18:27;;;;;;;3.70;1.30;;;6.50;77.40;;;;;;5010264;28;20091;-75
2020/12/25 04:20:53;;;;;;;2.90;1.00;;;6.40;77.30;;;;;;4998327;28;20121;-74
2020/12/25 04:23:18;;;;;;;6.00;1.50;;;6.40;77.30;;;;;;4983912;28;20468;-75
2020/12/25 04:25:44;;;;;;;4.90;1.13;;;6.40;77.50;;;;;;4991961;28;20095;-75
2020/12/25 04:28:09;;;;;;;6.83;1.03;;;6.40;77.50;;;;;;4997496;28;20026;-75
2020/12/25 04:30:35;;;;;;;7.07;1.30;;;6.30;77.50;;;;;;4991984;28;20073;-75
2020/12/25 04:33:01;;;;;;;4.83;0.77;;;6.30;77.70;;;;;;5008968;28;20038;-75
2020/12/25 04:35:26;;;;;;;3.27;1.13;;;6.20;77.80;;;;;;5008914;28;20061;-75
2020/12/25 04:37:52;;;;;;;5.53;1.20;;;6.20;77.80;;;;;;4998789;28;20053;-75
2020/12/25 04:40:17;;;;;;;1.60;0.63;;;6.20;77.90;;;;;;4998618;28;20046;-75
2020/12/25 04:42:50;;;;;;;3.57;0.80;;;6.20;77.80;;;;;;5011654;28;20038;-75
2020/12/25 04:45:17;;;;;;;7.68;1.20;;;6.30;77.80;;;;;;5009725;28;20080;-75
2020/12/25 04:47:45;;;;;;;4.57;1.33;;;6.20;77.80;;;;;;5009024;28;20395;-75
2020/12/25 04:50:11;;;;;;;2.30;0.80;;;6.20;77.90;;;;;;4991737;28;20033;-75
2020/12/25 04:52:36;;;;;;;4.57;0.97;;;6.20;78.10;;;;;;5010451;28;20087;-75
2020/12/25 04:55:03;;;;;;;8.13;1.33;;;6.20;78.10;;;;;;4986831;28;20125;-75
2020/12/25 04:57:28;;;;;;;4.23;0.73;;;6.20;78.00;;;;;;5009780;28;20026;-75
2020/12/25 04:59:54;;;;;;;4.97;1.30;;;6.30;78.20;;;;;;4990897;28;20045;-75
2020/12/25 05:02:20;;;;;;;3.10;0.93;;;6.30;78.20;;;;;;5009165;28;20575;-75
2020/12/25 05:04:46;;;;;;;5.63;2.10;;;6.40;78.10;;;;;;5011323;28;20083;-75
2020/12/25 05:07:14;;;;;;;4.10;0.80;;;6.40;77.90;;;;;;5008405;28;20529;-75
2020/12/25 05:09:39;;;;;;;2.00;0.80;;;6.50;77.80;;;;;;5007979;28;20030;-75
2020/12/25 05:12:09;;;;;;;5.43;1.33;;;6.50;77.80;;;;;;4976963;28;20402;-75
2020/12/25 05:14:34;;;;;;;2.47;0.90;;;6.60;77.70;;;;;;5001496;28;20099;-75
2020/12/25 05:17:01;;;;;;;6.57;1.73;;;6.60;77.60;;;;;;5009145;28;20500;-75
2020/12/25 05:19:27;;;;;;;3.80;0.87;;;6.60;77.40;;;;;;4987356;28;20038;-75
2020/12/25 05:21:55;;;;;;;6.80;1.17;;;6.60;77.50;;;;;;5003480;28;20471;-75
2020/12/25 05:24:21;;;;;;;5.20;0.90;;;6.60;77.50;;;;;;5010281;28;20053;-75
2020/12/25 05:26:55;;;;;;;5.17;1.20;;;6.60;77.70;;;;;;4992905;28;20050;-75
2020/12/25 05:29:22;;;;;;;4.23;1.47;;;6.60;77.70;;;;;;5009533;28;20050;-75
2020/12/25 05:31:50;;;;;;;2.60;1.07;;;6.70;77.80;;;;;;5008456;28;20460;-75
2020/12/25 05:34:20;;;;;;;4.23;0.70;;;6.70;77.60;;;;;;5008395;28;20030;-75
2020/12/25 05:36:53;;;;;;;2.90;1.63;;;6.80;77.60;;;;;;4992187;28;20372;-75
2020/12/25 05:39:26;;;;;;;6.50;1.50;;;6.80;77.40;;;;;;4995856;28;20076;-75
2020/12/25 05:41:57;;;;;;;4.10;0.97;;;6.90;77.20;;;;;;5013384;28;20291;-75
2020/12/25 05:44:34;;;;;;;3.07;1.33;;;6.90;77.10;;;;;;4994905;28;20123;-75
2020/12/25 05:47:01;;;;;;;6.23;1.20;;;6.90;77.00;;;;;;5012865;28;20026;-75
2020/12/25 05:49:28;;;;;;;1.90;0.67;;;7.00;76.90;;;;;;5013994;28;20037;-75
2020/12/25 05:51:54;;;;;;;4.03;0.80;;;6.90;76.70;;;;;;5012144;28;20026;-75
2020/12/25 05:54:22;;;;;;;3.10;0.77;;;6.90;76.80;;;;;;5012483;28;20034;-75
2020/12/25 05:56:55;;;;;;;6.07;1.20;;;6.90;76.90;;;;;;5013176;28;20452;-75
2020/12/25 05:59:32;;;;;;;2.00;0.77;;;6.90;77.00;;;;;;5013918;28;20034;-75
2020/12/25 06:02:03;;;;;;;5.33;1.10;;;6.80;76.90;;;;;;4996625;28;20124;-75
2020/12/25 06:04:31;;;;;;;7.07;2.00;;;6.80;76.90;;;;;;5012406;28;20018;-75
2020/12/25 06:06:57;;;;;;;3.13;0.87;;;6.80;77.00;;;;;;5012836;28;20061;-75
2020/12/25 06:09:33;;;;;;;5.47;1.13;;;6.80;76.90;;;;;;5012295;28;20038;-75
2020/12/25 06:12:00;;;;;;;3.73;1.10;;;6.80;77.00;;;;;;4993262;28;20041;-75
2020/12/25 06:14:26;;;;;;;5.80;1.30;;;6.80;77.20;;;;;;5012324;28;20034;-75
2020/12/25 06:17:17;;;;;;;7.03;1.77;;;6.80;77.30;;;;;;5011891;28;20065;-75
2020/12/25 06:19:55;;;;;;;13.67;2.20;;;6.80;77.20;;;;;;5013809;28;20113;-75
2020/12/25 06:22:36;;;;;;;7.07;1.40;;;6.70;77.20;;;;;;4999226;28;20848;-75
2020/12/25 06:25:06;;;;;;;5.73;2.40;;;6.70;77.40;;;;;;4995071;28;20076;-74
2020/12/25 06:27:32;;;;;;;10.05;2.00;;;6.60;77.50;;;;;;5012835;28;20030;-75
2020/12/25 06:30:00;;;;;;;7.03;1.37;;;6.60;77.70;;;;;;5006571;28;20065;-75
2020/12/25 06:32:26;;;;;;;6.43;1.13;;;6.60;77.80;;;;;;4994910;28;20029;-75
2020/12/25 06:34:59;;;;;;;5.13;2.00;;;6.60;77.70;;;;;;5011783;28;20060;-76
2020/12/25 06:37:28;;;;;;;7.57;2.13;;;6.60;77.70;;;;;;5011164;28;20388;-75
2020/12/25 06:40:02;;;;;;;7.63;1.33;;;6.60;77.70;;;;;;5011650;28;20033;-75
2020/12/25 06:42:34;;;;;;;5.27;1.10;;;6.60;77.70;;;;;;5011818;28;20139;-75
2020/12/25 06:45:07;;;;;;;6.90;1.50;;;6.60;77.70;;;;;;5011928;28;20541;-75
2020/12/25 06:47:34;;;;;;;6.35;1.20;;;6.60;77.70;;;;;;5011841;28;20029;-75
2020/12/25 06:50:15;;;;;;;5.63;1.87;;;6.60;77.50;;;;;;5010133;28;20121;-76
2020/12/25 06:52:54;;;;;;;4.10;1.30;;;6.60;77.60;;;;;;4993959;28;20302;-75
2020/12/25 06:55:24;;;;;;;7.37;1.77;;;6.60;77.20;;;;;;5010214;28;20030;-75
2020/12/25 06:57:53;;;;;;;6.67;1.23;;;6.60;77.40;;;;;;5004421;28;20486;-75
2020/12/25 07:00:22;;;;;;;8.57;1.43;;;6.60;77.40;;;;;;4973941;28;20037;-75
2020/12/25 07:02:49;;;;;;;8.60;2.53;;;6.60;77.30;;;;;;4995987;28;20065;-75
2020/12/25 07:05:15;;;;;;;5.70;1.40;;;6.60;77.20;;;;;;5009899;28;20109;-75
2020/12/25 07:07:40;;;;;;;6.47;1.30;;;6.60;77.20;;;;;;5011251;28;20160;-75
2020/12/25 07:10:11;;;;;;;6.30;1.50;;;6.60;77.20;;;;;;4991716;28;20061;-75
2020/12/25 07:12:38;;;;;;;5.47;1.20;;;6.60;77.20;;;;;;5009610;28;20057;-75
2020/12/25 07:15:06;;;;;;;8.00;1.77;;;6.60;77.10;;;;;;5011340;28;20088;-74
2020/12/25 07:17:31;;;;;;;8.80;1.33;;;6.60;77.00;;;;;;5011986;28;20038;-75
2020/12/25 07:19:57;;;;;;;7.77;2.03;;;6.50;77.00;;;;;;5013149;28;20048;-75
2020/12/25 07:22:23;;;;;;;7.53;1.73;;;6.50;77.10;;;;;;5011923;28;20041;-75
2020/12/25 07:24:49;;;;;;;7.00;2.03;;;6.50;77.30;;;;;;5011513;28;20033;-75
2020/12/25 07:27:15;;;;;;;6.77;1.83;;;6.50;77.50;;;;;;5011417;28;20483;-75
2020/12/25 07:29:42;;;;;;;4.70;1.10;;;6.40;77.60;;;;;;5012246;28;20058;-75
2020/12/25 07:32:09;;;;;;;8.20;1.37;;;6.50;77.60;;;;;;4990145;28;20031;-75
2020/12/25 07:34:35;;;;;;;9.63;1.60;;;6.50;77.70;;;;;;5001992;28;20117;-75
2020/12/25 07:37:01;;;;;;;5.70;1.47;;;6.50;77.70;;;;;;5011355;28;20556;-75
2020/12/25 07:39:28;;;;;;;6.40;1.60;;;6.60;77.60;;;;;;5010078;28;20036;-76
2020/12/25 07:41:54;;;;;;;8.70;1.87;;;6.60;77.20;;;;;;5009366;28;20033;-76
2020/12/25 07:44:21;;;;;;;5.60;1.20;;;6.60;77.00;;;;;;5010807;28;20224;-75
2020/12/25 07:46:47;;;;;;;8.63;1.67;;;6.70;76.80;;;;;;5010621;28;20030;-75
2020/12/25 07:49:13;;;;;;;5.73;1.47;;;6.70;76.80;;;;;;5011036;28;20097;-75
2020/12/25 07:51:39;;;;;;;11.90;2.40;;;6.70;76.70;;;;;;5010556;28;20033;-75
2020/12/25 07:54:06;;;;;;;13.67;2.93;;;6.60;76.60;;;;;;5009631;28;20120;-76
2020/12/25 07:56:35;;;;;;;5.40;1.00;;;6.60;76.80;;;;;;5010669;28;20041;-75
2020/12/25 07:59:02;;;;;;;5.67;1.50;;;6.60;76.90;;;;;;4997845;28;20045;-75
2020/12/25 08:01:30;;;;;;;5.77;1.87;;;6.50;77.00;;;;;;5010613;28;20112;-75
2020/12/25 08:04:00;;;;;;;7.20;1.37;;;6.50;77.10;;;;;;5000348;28;20061;-75
2020/12/25 08:06:27;;;;;;;6.10;1.47;;;6.50;77.00;;;;;;4995656;28;20036;-76
2020/12/25 08:09:07;;;;;;;5.37;1.33;;;6.50;76.90;;;;;;5011488;28;20022;-74
2020/12/25 08:11:35;;;;;;;5.30;1.37;;;6.50;77.00;;;;;;4994192;28;20029;-73
2020/12/25 08:14:07;;;;;;;7.83;1.87;;;6.50;77.00;;;;;;5008891;28;20018;-74
2020/12/25 08:16:36;;;;;;;8.83;1.20;;;6.50;77.10;;;;;;5007899;28;20032;-75
2020/12/25 08:19:03;;;;;;;6.60;1.50;;;6.40;77.00;;;;;;5008098;28;20064;-74
2020/12/25 08:21:38;;;;;;;11.77;3.07;;;6.40;77.20;;;;;;4991774;28;20026;-74
2020/12/25 08:24:05;;;;;;;7.40;1.77;;;6.50;77.20;;;;;;5008634;28;20107;-74
2020/12/25 08:26:31;;;;;;;6.47;1.30;;;6.50;77.10;;;;;;4994799;28;20018;-73
2020/12/25 08:28:58;;;;;;;9.90;1.30;;;6.50;76.80;;;;;;5010720;28;20436;-75
2020/12/25 08:31:23;;;;;;;4.50;1.17;;;6.50;76.90;;;;;;5002327;28;20038;-74
2020/12/25 08:33:56;;;;;;;6.10;2.50;;;6.50;77.00;;;;;;5008398;28;20364;-73
2020/12/25 08:36:23;;;;;;;5.22;1.20;;;6.50;77.00;;;;;;5007313;28;20380;-74
2020/12/25 08:38:50;;;;;;;5.97;1.30;;;6.50;77.20;;;;;;4992525;28;20033;-74
2020/12/25 08:41:16;;;;;;;12.30;2.17;;;6.50;77.40;;;;;;5009442;28;20036;-73
2020/12/25 08:43:42;;;;;;;17.53;2.70;;;6.60;77.50;;;;;;5008721;28;20073;-73
2020/12/25 08:46:08;;;;;;;9.37;1.93;;;6.70;77.40;;;;;;5009756;28;20038;-74
2020/12/25 08:48:47;;;;;;;8.50;2.13;;;6.80;76.90;;;;;;5010304;28;20068;-74
2020/12/25 08:51:15;;;;;;;8.03;2.17;;;6.90;76.80;;;;;;5008170;28;20032;-73
2020/12/25 08:53:53;;;;;;;8.67;1.47;;;7.20;77.20;;;;;;5009769;28;20034;-74
2020/12/25 08:56:21;;;;;;;5.07;1.60;;;7.60;76.30;;;;;;5005735;28;20033;-74
2020/12/25 08:59:00;;;;;;;10.25;3.22;;;7.90;75.50;;;;;;5003942;28;20026;-74
2020/12/25 09:01:28;;;;;;;8.80;1.52;;;8.20;74.20;;;;;;5002493;28;20030;-75
2020/12/25 09:03:56;;;;;;;7.32;1.45;;;8.20;73.10;;;;;;5003288;28;20037;-74
2020/12/25 09:06:21;;;;;;;9.48;1.73;;;8.20;72.80;;;;;;4982096;28;20042;-74
2020/12/25 09:08:47;;;;;;;9.13;1.75;;;8.10;72.90;;;;;;5003766;28;20042;-73
2020/12/25 09:11:18;;;;;;;7.28;2.00;;;8.00;73.10;;;;;;5002471;28;20318;-72
2020/12/25 09:13:45;;;;;;;5.50;1.50;;;8.10;73.40;;;;;;5007289;28;20049;-74
2020/12/25 09:16:11;;;;;;;6.50;2.20;;;8.10;73.30;;;;;;5011021;28;20036;-74
2020/12/25 09:18:38;;;;;;;10.07;2.17;;;8.10;73.10;;;;;;5007212;28;20025;-73
2020/12/25 09:21:08;;;;;;;9.45;2.42;;;8.10;73.30;;;;;;5003088;28;20042;-74
2020/12/25 09:23:34;;;;;;;4.75;1.40;;;8.10;73.30;;;;;;5008760;28;20121;-73
2020/12/25 09:26:00;;;;;;;5.90;1.88;;;8.20;73.40;;;;;;5012093;28;20523;-73
2020/12/25 09:28:26;;;;;;;6.15;2.03;;;8.30;73.40;;;;;;5010732;28;20040;-74
2020/12/25 09:30:56;;;;;;;8.55;1.67;;;8.30;73.10;;;;;;4990231;28;20089;-74
2020/12/25 09:33:22;;;;;;;8.10;1.70;;;8.20;73.10;;;;;;5009209;28;20048;-75
2020/12/25 09:35:49;;;;;;;15.15;2.72;;;8.10;73.00;;;;;;5003964;28;20041;-75
2020/12/25 09:38:14;;;;;;;11.23;2.65;;;8.10;73.40;;;;;;5006244;28;20509;-74
2020/12/25 09:40:40;;;;;;;8.43;1.92;;;8.00;73.40;;;;;;5003208;28;20109;-74
2020/12/25 09:43:06;;;;;;;8.02;2.53;;;8.10;73.70;;;;;;5005573;28;20038;-73
2020/12/25 09:45:32;;;;;;;11.43;2.00;;;8.20;73.70;;;;;;4998754;28;20038;-73
2020/12/25 09:47:58;;;;;;;6.90;2.13;;;8.20;73.50;;;;;;4989964;28;20026;-73
2020/12/25 09:50:23;;;;;;;7.97;1.90;;;8.20;73.70;;;;;;5003831;28;20389;-73
2020/12/25 09:52:49;;;;;;;7.75;1.63;;;8.30;73.50;;;;;;4984623;28;20041;-73
2020/12/25 09:55:15;;;;;;;13.70;4.03;;;8.40;73.30;;;;;;5004940;28;20502;-73
2020/12/25 09:57:40;;;;;;;10.35;3.58;;;8.40;72.70;;;;;;5009009;28;20037;-73
2020/12/25 10:00:13;;;;;;;13.18;4.82;;;8.30;72.40;;;;;;5009113;28;20481;-73
2020/12/25 10:02:39;;;;;;;15.32;5.15;;;8.20;72.40;;;;;;4988393;28;20037;-73
2020/12/25 10:05:06;;;;;;;12.55;4.22;;;8.10;73.10;;;;;;4997442;28;20026;-73
2020/12/25 10:07:32;;;;;;;9.95;3.13;;;8.10;73.40;;;;;;5009009;28;20169;-73
2020/12/25 10:09:58;;;;;;;13.60;2.85;;;8.10;73.50;;;;;;4999057;28;20058;-73
2020/12/25 10:12:24;;;;;;;10.00;2.40;;;8.20;73.50;;;;;;5006081;28;20587;-73
2020/12/25 10:14:49;;;;;;;9.68;1.98;;;8.30;73.00;;;;;;5008587;28;20041;-73
2020/12/25 10:17:15;;;;;;;13.82;2.70;;;8.30;73.40;;;;;;5007961;28;20118;-73
2020/12/25 10:19:41;;;;;;;6.72;2.15;;;8.40;72.80;;;;;;5002217;28;20582;-73
2020/12/25 10:22:07;;;;;;;5.65;2.28;;;8.50;72.70;;;;;;5003516;28;20091;-73
2020/12/25 10:24:32;;;;;;;10.68;2.13;;;8.50;72.70;;;;;;5005691;28;20053;-73
2020/12/25 10:26:58;;;;;;;17.02;2.30;;;8.40;72.30;;;;;;5003078;28;20109;-73
2020/12/25 10:29:23;;;;;;;10.70;2.28;;;8.40;72.50;;;;;;5003883;28;20050;-74
2020/12/25 10:31:50;;;;;;;8.07;2.35;;;8.30;72.70;;;;;;5012425;28;20129;-78
2020/12/25 10:34:16;;;;;;;8.10;3.08;;;8.30;72.90;;;;;;5012451;28;20592;-75
2020/12/25 10:36:43;;;;;;;10.82;2.75;;;8.30;72.90;;;;;;4986482;28;20038;-74
2020/12/25 10:39:12;;;;;;;6.82;1.70;;;8.40;72.60;;;;;;5010039;28;20365;-75
2020/12/25 10:41:37;;;;;;;4.40;1.50;;;8.40;72.70;;;;;;5007244;28;20049;-75
2020/12/25 10:44:03;;;;;;;7.80;1.58;;;8.40;72.20;;;;;;4986342;28;20037;-75
2020/12/25 10:46:29;;;;;;;4.78;1.35;;;8.50;71.90;;;;;;5007785;28;20026;-78
2020/12/25 10:48:55;;;;;;;5.25;1.20;;;8.40;71.60;;;;;;5011375;28;20041;-75
2020/12/25 10:51:20;;;;;;;3.40;1.00;;;8.30;71.80;;;;;;5004823;28;20038;-78
2020/12/25 10:53:46;;;;;;;6.53;1.10;;;8.30;72.00;;;;;;4989232;28;20156;-74
2020/12/25 10:56:27;;;;;;;5.60;1.75;;;8.20;71.70;;;;;;4987381;28;20037;-73
2020/12/25 10:58:53;;;;;;;1.75;1.02;;;8.20;72.20;;;;;;5006720;28;20034;-73
2020/12/25 11:01:29;;;;;;;3.30;0.57;;;8.10;72.10;;;;;;5006744;28;20041;-73
2020/12/25 11:03:56;;;;;;;3.33;0.80;;;8.20;72.20;;;;;;5010075;28;20041;-74
2020/12/25 11:06:36;;;;;;;2.53;1.02;;;8.30;71.80;;;;;;5007318;28;20102;-75
2020/12/25 11:09:03;;;;;;;3.30;0.60;;;8.30;71.90;;;;;;4971257;28;20117;-73
2020/12/25 11:11:31;;;;;;;3.72;1.10;;;8.20;71.90;;;;;;5006952;28;20030;-82
2020/12/25 11:13:58;;;;;;;4.88;0.93;;;8.30;72.10;;;;;;5008158;28;20540;-74
2020/12/25 11:16:28;;;;;;;2.15;0.68;;;8.30;71.60;;;;;;5010737;28;20030;-86
2020/12/25 11:18:55;;;;;;;4.68;1.55;;;8.30;70.70;;;;;;5011183;28;20064;-89
2020/12/25 11:21:22;;;;;;;4.47;1.33;;;8.30;70.60;;;;;;5021896;28;20033;-82
2020/12/25 11:23:50;;;;;;;6.47;1.40;;;8.40;70.60;;;;;;5014317;28;20362;-85
2020/12/25 11:26:23;;;;;;;5.65;2.10;;;8.40;70.50;;;;;;4993797;28;20566;-82
2020/12/25 11:28:55;;;;;;;7.15;1.02;;;8.40;70.30;;;;;;5007127;28;20038;-83
2020/12/25 11:31:21;;;;;;;4.28;1.10;;;8.50;70.40;;;;;;5009811;28;20057;-83
2020/12/25 11:33:48;;;;;;;3.50;1.02;;;8.60;70.90;;;;;;5010715;28;20076;-83
2020/12/25 11:36:20;;;;;;;7.22;1.38;;;8.60;70.30;;;;;;5009397;28;20033;-83
2020/12/25 11:38:47;;;;;;;5.57;1.00;;;8.60;69.70;;;;;;5011271;28;20033;-82
2020/12/25 11:41:14;;;;;;;7.93;1.42;;;8.60;70.20;;;;;;5006548;28;20037;-79
2020/12/25 11:43:40;;;;;;;6.95;1.63;;;8.70;70.40;;;;;;4995746;28;20108;-79
2020/12/25 11:46:06;;;;;;;9.43;2.22;;;8.70;70.30;;;;;;5004903;28;20557;-79
2020/12/25 11:48:33;;;;;;;9.02;4.00;;;8.80;70.20;;;;;;5002612;28;20052;-77
2020/12/25 11:50:59;;;;;;;7.80;2.53;;;8.90;69.70;;;;;;5006072;28;20076;-76
2020/12/25 11:53:25;;;;;;;9.00;2.13;;;8.90;69.10;;;;;;5008798;28;20033;-76
2020/12/25 11:55:51;;;;;;;6.80;2.90;;;8.90;69.40;;;;;;5007010;28;20042;-77
2020/12/25 11:58:16;;;;;;;6.95;2.95;;;8.90;69.10;;;;;;5014234;28;20033;-77
2020/12/25 12:00:42;;;;;;;7.43;2.15;;;8.90;69.70;;;;;;5006002;28;20084;-76
2020/12/25 12:03:08;;;;;;;4.68;1.85;;;9.00;69.90;;;;;;4988854;28;20026;-76
2020/12/25 12:05:34;;;;;;;7.95;2.35;;;9.10;69.90;;;;;;5001135;28;20038;-78
2020/12/25 12:08:00;;;;;;;5.80;1.63;;;9.10;69.50;;;;;;5003740;28;20037;-76
2020/12/25 12:10:25;;;;;;;5.20;1.67;;;9.10;69.70;;;;;;5000868;28;20088;-76
2020/12/25 12:12:51;;;;;;;6.78;2.28;;;9.10;69.90;;;;;;5005129;28;20057;-76
2020/12/25 12:15:17;;;;;;;5.28;1.90;;;9.20;69.90;;;;;;5005494;28;20034;-78
2020/12/25 12:17:42;;;;;;;8.70;2.95;;;9.20;69.90;;;;;;5005950;28;20030;-73
2020/12/25 12:20:08;;;;;;;5.85;1.83;;;9.30;69.20;;;;;;5003837;28;20045;-76
2020/12/25 12:22:34;;;;;;;5.28;1.55;;;9.20;69.10;;;;;;5003316;28;20037;-74
2020/12/25 12:25:07;;;;;;;5.72;2.10;;;9.20;69.50;;;;;;5006568;28;20096;-74
2020/12/25 12:27:33;;;;;;;9.02;2.33;;;9.30;69.20;;;;;;4989411;28;20030;-74
2020/12/25 12:29:58;;;;;;;7.93;2.60;;;9.30;68.70;;;;;;4985266;28;20477;-73
2020/12/25 12:32:24;;;;;;;8.52;2.00;;;9.30;68.80;;;;;;5005443;28;20030;-75
2020/12/25 12:34:50;;;;;;;6.63;2.28;;;9.40;68.50;;;;;;5007494;28;20087;-73
2020/12/25 12:37:15;;;;;;;7.13;1.95;;;9.40;69.20;;;;;;4986670;28;20033;-74
2020/12/25 12:39:41;;;;;;;8.82;1.63;;;9.50;69.30;;;;;;5002723;28;20030;-87
2020/12/25 12:42:07;;;;;;;6.47;2.45;;;9.70;68.80;;;;;;5005396;28;20048;-74
2020/12/25 12:44:32;;;;;;;7.68;1.85;;;9.80;68.30;;;;;;4995732;28;20503;-75
2020/12/25 12:46:58;;;;;;;7.43;1.63;;;9.90;67.70;;;;;;5005222;28;20033;-77
2020/12/25 12:49:23;;;;;;;8.88;1.52;;;9.90;67.30;;;;;;5002169;28;20033;-73
2020/12/25 12:51:49;;;;;;;2.53;1.20;;;9.90;67.40;;;;;;5007490;28;20045;-74
2020/12/25 12:54:14;;;;;;;7.50;1.77;;;9.90;66.90;;;;;;4991446;28;20026;-74